createdAt,value
2019-04-29T00:00:19.041Z,56.87
2019-04-29T00:02:49.253Z,57.50
2019-04-29T00:05:17.589Z,55.43
2019-04-29T00:07:45.921Z,58.23
2019-04-29T00:10:15.929Z,46.20
2019-04-29T00:12:44.214Z,52.37
2019-04-29T00:15:14.515Z,51.57
2019-04-29T00:17:44.549Z,54.60
2019-04-29T00:20:14.554Z,46.10
2019-04-29T00:22:42.777Z,44.53
2019-04-29T00:25:11.140Z,49.30
2019-04-29T00:27:39.635Z,55.07
2019-04-29T00:30:09.781Z,54.97
2019-04-29T00:32:38.222Z,58.60
2019-04-29T00:35:07.130Z,61.83
2019-04-29T00:37:36.981Z,60.90
2019-04-29T00:40:07.129Z,56.13
2019-04-29T00:42:37.000Z,57.23
2019-04-29T00:45:06.393Z,53.20
2019-04-29T00:47:34.899Z,61.67
2019-04-29T00:50:04.388Z,66.30
2019-04-29T00:52:32.712Z,53.37
2019-04-29T00:55:02.561Z,50.90
2019-04-29T00:57:30.797Z,47.83
2019-04-29T01:00:00.249Z,60.40
2019-04-29T01:02:28.821Z,58.37
2019-04-29T01:04:57.258Z,54.00
2019-04-29T01:07:25.673Z,47.60
2019-04-29T01:09:54.041Z,55.53
2019-04-29T01:12:22.401Z,49.20
2019-04-29T01:14:50.889Z,53.17
2019-04-29T01:17:19.513Z,49.63
2019-04-29T01:19:47.673Z,66.03
2019-04-29T01:22:16.033Z,55.30
2019-04-29T01:24:44.341Z,51.03
2019-04-29T01:27:14.226Z,54.43
2019-04-29T01:29:42.592Z,51.40
2019-04-29T01:32:10.860Z,50.33
2019-04-29T01:34:40.833Z,60.10
2019-04-29T01:37:09.160Z,61.33
2019-04-29T01:39:39.142Z,57.50
2019-04-29T01:42:09.001Z,62.07
2019-04-29T01:44:37.289Z,61.07
2019-04-29T01:47:05.661Z,51.23
2019-04-29T01:49:33.886Z,44.33
2019-04-29T01:52:02.205Z,69.43
2019-04-29T01:54:30.654Z,57.40
2019-04-29T01:56:59.049Z,52.97
2019-04-29T01:59:27.341Z,47.17
2019-04-29T02:01:55.727Z,58.80
2019-04-29T02:04:24.179Z,51.07
2019-04-29T02:06:52.609Z,60.83
2019-04-29T02:09:22.552Z,52.87
2019-04-29T02:11:50.901Z,68.47
2019-04-29T02:14:19.157Z,49.80
2019-04-29T02:16:47.778Z,59.40
2019-04-29T02:19:17.088Z,44.93
2019-04-29T02:21:47.061Z,51.43
2019-04-29T02:24:17.207Z,50.57
2019-04-29T02:26:45.866Z,49.20
2019-04-29T02:29:14.225Z,53.37
2019-04-29T02:31:43.858Z,50.40
2019-04-29T02:34:12.150Z,55.17
2019-04-29T02:36:40.645Z,48.80
2019-04-29T02:39:11.302Z,57.07
2019-04-29T02:41:41.231Z,46.50
2019-04-29T02:44:11.128Z,51.30
2019-04-29T02:46:39.447Z,55.20
2019-04-29T02:49:07.953Z,62.27
2019-04-29T02:51:39.314Z,55.40
2019-04-29T02:54:07.568Z,61.87
2019-04-29T02:56:35.944Z,52.00
2019-04-29T02:59:05.899Z,49.77
2019-04-29T03:01:35.790Z,54.43
2019-04-29T03:04:05.713Z,59.57
2019-04-29T03:06:34.125Z,57.60
2019-04-29T03:09:02.536Z,54.83
2019-04-29T03:11:32.542Z,66.17
2019-04-29T03:14:00.850Z,61.60
2019-04-29T03:16:29.136Z,52.07
2019-04-29T03:18:59.181Z,62.93
2019-04-29T03:21:29.093Z,44.00
2019-04-29T03:23:57.408Z,58.27
2019-04-29T03:26:25.731Z,57.47
2019-04-29T03:28:54.073Z,58.33
2019-04-29T03:31:22.486Z,50.73
2019-04-29T03:33:50.709Z,63.43
2019-04-29T03:36:19.132Z,59.10
2019-04-29T03:38:47.474Z,62.30
2019-04-29T03:41:15.648Z,51.17
2019-04-29T03:43:44.064Z,70.70
2019-04-29T03:46:12.350Z,65.23
2019-04-29T03:48:40.694Z,50.37
2019-04-29T03:51:09.029Z,64.27
2019-04-29T03:53:37.341Z,70.73
2019-04-29T03:56:05.770Z,65.10
2019-04-29T03:58:34.140Z,71.33
2019-04-29T04:01:04.189Z,62.03
2019-04-29T04:03:34.201Z,69.70
2019-04-29T04:06:04.186Z,73.73
2019-04-29T04:08:34.167Z,83.10
2019-04-29T04:11:02.409Z,73.47
2019-04-29T04:13:30.865Z,78.93
2019-04-29T04:15:59.371Z,71.73
2019-04-29T04:18:29.201Z,78.73
2019-04-29T04:20:57.541Z,64.57
2019-04-29T04:23:25.917Z,79.73
2019-04-29T04:25:54.222Z,68.30
2019-04-29T04:28:22.789Z,70.23
2019-04-29T04:30:51.158Z,78.47
2019-04-29T04:33:19.381Z,71.40
2019-04-29T04:35:47.661Z,66.67
2019-04-29T04:38:15.900Z,61.30
2019-04-29T04:40:45.922Z,73.83
2019-04-29T04:43:14.287Z,55.57
2019-04-29T04:45:42.676Z,73.00
2019-04-29T04:48:11.049Z,65.43
2019-04-29T04:50:39.474Z,65.97
2019-04-29T04:53:07.911Z,66.77
2019-04-29T04:55:37.832Z,63.33
2019-04-29T04:58:06.208Z,64.43
2019-04-29T05:00:36.258Z,64.97
2019-04-29T05:03:04.580Z,62.60
2019-04-29T05:05:32.984Z,67.60
2019-04-29T05:08:01.375Z,79.50
2019-04-29T05:10:29.822Z,73.00
2019-04-29T05:12:58.250Z,83.70
2019-04-29T05:15:26.929Z,87.20
2019-04-29T05:17:55.321Z,98.63
2019-04-29T05:20:23.747Z,95.03
2019-04-29T05:22:53.652Z,95.33
2019-04-29T05:25:22.014Z,153.80
2019-04-29T05:27:50.475Z,99.97
2019-04-29T05:30:18.735Z,82.50
2019-04-29T05:32:47.101Z,104.47
2019-04-29T05:35:17.080Z,89.73
2019-04-29T05:37:48.613Z,97.63
2019-04-29T05:40:18.593Z,89.50
2019-04-29T05:42:48.285Z,104.73
2019-04-29T05:45:18.419Z,111.77
2019-04-29T05:47:52.301Z,120.10
2019-04-29T05:50:20.201Z,91.57
2019-04-29T05:52:50.041Z,95.60
2019-04-29T05:55:18.376Z,93.53
2019-04-29T08:05:01.111Z,120.17
2019-04-29T08:07:29.781Z,128.65
2019-04-29T08:09:58.168Z,168.50
2019-04-29T08:12:26.780Z,139.32
2019-04-29T08:14:58.536Z,119.00
2019-04-29T08:17:25.209Z,104.92
2019-04-29T08:32:39.071Z,111.05
2019-04-29T08:35:07.470Z,87.85
2019-04-29T08:37:35.869Z,80.12
2019-04-29T08:40:16.058Z,90.72
2019-04-29T08:42:41.383Z,83.50
2019-04-29T08:45:09.464Z,81.57
2019-04-29T08:47:39.612Z,82.50
2019-04-29T08:50:08.068Z,90.90
2019-04-29T08:52:36.810Z,85.03
2019-04-29T08:55:05.276Z,78.35
2019-04-29T08:57:36.529Z,78.70
2019-04-29T09:00:05.114Z,97.82
2019-04-29T09:02:35.582Z,83.75
2019-04-29T09:05:06.845Z,66.25
2019-04-29T09:07:35.895Z,60.45
2019-04-29T09:10:06.005Z,70.00
2019-04-29T09:12:34.346Z,42.95
2019-04-29T09:15:02.965Z,81.35
2019-04-29T09:17:32.466Z,73.30
2019-04-29T09:20:00.965Z,93.12
2019-04-29T09:22:31.449Z,80.42
2019-04-29T09:25:01.435Z,71.28
2019-04-29T09:27:29.792Z,60.10
2019-04-29T09:29:58.874Z,74.32
2019-04-29T09:32:28.783Z,69.17
2019-04-29T09:34:59.465Z,75.70
2019-04-29T09:37:27.310Z,65.20
2019-04-29T09:39:55.758Z,79.60
2019-04-29T09:42:25.663Z,69.97
2019-04-29T09:44:55.568Z,61.68
2019-04-29T09:47:24.035Z,63.95
2019-04-29T09:49:52.547Z,64.50
2019-04-29T09:52:20.888Z,60.33
2019-04-29T09:54:49.176Z,62.67
2019-04-29T09:57:18.642Z,89.20
2019-04-29T09:59:48.748Z,87.15
2019-04-29T10:02:18.805Z,54.53
2019-04-29T10:04:56.277Z,72.60
2019-04-29T10:07:19.011Z,65.87
2019-04-29T10:09:57.162Z,66.25
2019-04-29T10:12:17.507Z,57.27
2019-04-29T10:14:45.827Z,51.83
2019-04-29T10:17:16.673Z,65.70
2019-04-29T10:19:46.898Z,48.38
2019-04-29T10:22:15.248Z,51.68
2019-04-29T10:24:43.867Z,58.85
2019-04-29T10:27:12.265Z,48.58
2019-04-29T10:29:42.272Z,56.25
2019-04-29T10:32:11.226Z,43.42
2019-04-29T10:34:42.882Z,50.63
2019-04-29T10:37:10.031Z,41.73
2019-04-29T10:39:43.358Z,46.95
2019-04-29T10:42:13.502Z,43.52
2019-04-29T10:44:44.524Z,57.83
2019-04-29T10:47:14.626Z,61.90
2019-04-29T10:49:44.682Z,54.10
2019-04-29T10:52:13.446Z,77.90
2019-04-29T10:54:41.774Z,69.25
2019-04-29T10:57:10.523Z,70.42
2019-04-29T10:59:45.022Z,69.25
2019-04-29T11:02:15.933Z,79.90
2019-04-29T11:04:47.129Z,77.10
2019-04-29T11:07:19.121Z,50.92
2019-04-29T11:09:50.700Z,72.82
2019-04-29T11:12:19.318Z,65.35
2019-04-29T11:14:47.708Z,54.75
2019-04-29T11:17:16.860Z,45.38
2019-04-29T11:19:45.521Z,50.20
2019-04-29T11:22:15.495Z,66.05
2019-04-29T11:24:45.522Z,54.03
2019-04-29T11:27:15.475Z,60.28
2019-04-29T11:29:43.969Z,59.53
2019-04-29T11:32:14.156Z,62.45
2019-04-29T11:34:48.474Z,45.75
2019-04-29T11:37:17.761Z,40.63
2019-04-29T11:39:46.205Z,47.48
2019-04-29T11:42:15.696Z,59.90
2019-04-29T11:44:44.157Z,48.73
2019-04-29T11:47:12.559Z,74.87
2019-04-29T11:49:42.563Z,56.70
2019-04-29T11:52:10.829Z,49.00
2019-04-29T11:54:39.251Z,45.25
2019-04-29T11:57:09.148Z,55.92
2019-04-29T11:59:39.271Z,56.65
2019-04-29T12:02:09.250Z,70.85
2019-04-29T12:04:41.937Z,47.27
2019-04-29T12:07:09.367Z,50.73
2019-04-29T12:09:37.989Z,63.95
2019-04-29T12:12:07.918Z,83.35
2019-04-29T12:14:39.147Z,68.57
2019-04-29T12:17:09.368Z,92.25
2019-04-29T12:19:39.263Z,108.27
2019-04-29T12:22:10.488Z,127.27
2019-04-29T12:24:39.047Z,128.10
2019-04-29T12:27:08.475Z,77.17
2019-04-29T12:29:36.807Z,298.07
2019-04-29T12:32:06.941Z,194.55
2019-04-29T12:34:36.831Z,185.80
2019-04-29T12:37:06.932Z,120.87
2019-04-29T12:39:43.574Z,57.80
2019-04-29T12:42:08.639Z,59.35
2019-04-29T12:44:40.023Z,55.52
2019-04-29T12:47:10.356Z,49.98
2019-04-29T12:49:42.324Z,48.20
2019-04-29T12:52:08.903Z,53.58
2019-04-29T12:54:37.295Z,44.60
2019-04-29T12:57:05.786Z,36.98
2019-04-29T12:59:35.408Z,17.77
2019-04-29T13:02:06.123Z,30.65
2019-04-29T13:04:36.147Z,38.98
2019-04-29T13:07:06.896Z,26.82
2019-04-29T13:09:37.180Z,26.17
2019-04-29T13:12:19.203Z,41.83
2019-04-29T13:14:39.174Z,64.60
2019-04-29T13:17:14.878Z,87.50
2019-04-29T13:19:40.743Z,40.65
2019-04-29T13:22:10.601Z,50.75
2019-04-29T13:24:42.780Z,44.67
2019-04-29T13:27:16.011Z,39.60
2019-04-29T13:29:39.185Z,38.25
2019-04-29T13:32:07.764Z,40.67
2019-04-29T13:34:37.680Z,32.63
2019-04-29T13:37:08.045Z,43.98
2019-04-29T13:39:39.783Z,126.38
2019-04-29T13:42:09.202Z,37.00
2019-04-29T13:44:42.043Z,55.50
2019-04-29T13:47:08.388Z,67.47
2019-04-29T13:49:38.629Z,65.65
2019-04-29T13:52:07.077Z,35.33
2019-04-29T13:54:37.299Z,55.92
2019-04-29T13:57:09.632Z,61.90
2019-04-29T13:59:42.025Z,36.03
2019-04-29T14:02:10.835Z,22.93
2019-04-29T14:04:40.957Z,41.37
2019-04-29T14:07:09.346Z,295.93
2019-04-29T14:09:39.219Z,315.90
2019-04-29T14:12:46.462Z,233.15
2019-04-29T14:14:38.107Z,22.22
2019-04-29T14:17:24.868Z,36.10
2019-04-29T14:19:42.531Z,26.62
2019-04-29T14:22:20.954Z,25.68
2019-04-29T14:24:38.127Z,25.85
2019-04-29T14:27:06.377Z,50.00
2019-04-29T14:29:34.660Z,23.25
2019-04-29T14:32:03.215Z,26.73
2019-04-29T14:34:34.932Z,24.85
2019-04-29T14:37:19.598Z,26.17
2019-04-29T14:39:37.183Z,24.00
2019-04-29T14:42:04.875Z,24.30
2019-04-29T14:44:35.011Z,28.30
2019-04-29T14:47:05.023Z,26.12
2019-04-29T14:49:35.397Z,28.20
2019-04-29T14:52:08.289Z,62.55
2019-04-29T14:54:36.837Z,53.33
2019-04-29T14:57:09.090Z,236.40
2019-04-29T14:59:36.594Z,89.15
2019-04-29T15:02:06.798Z,52.67
2019-04-29T15:04:36.695Z,50.23
2019-04-29T15:07:06.419Z,20.68
2019-04-29T15:09:46.386Z,89.03
2019-04-29T15:12:07.989Z,183.03
2019-04-29T15:14:37.972Z,30.82
2019-04-29T15:17:08.311Z,19.25
2019-04-29T15:19:38.347Z,33.08
2019-04-29T15:22:08.357Z,30.62
2019-04-29T15:24:36.623Z,18.12
2019-04-29T15:27:05.302Z,23.10
2019-04-29T15:29:33.735Z,18.35
2019-04-29T15:32:02.510Z,14.75
2019-04-29T15:34:30.809Z,33.85
2019-04-29T15:36:59.330Z,30.25
2019-04-29T15:39:27.764Z,18.42
2019-04-29T15:41:56.170Z,18.70
2019-04-29T15:44:24.582Z,17.85
2019-04-29T15:46:52.995Z,18.17
2019-04-29T15:49:24.571Z,15.60
2019-04-29T15:51:51.349Z,21.73
2019-04-29T15:54:19.674Z,19.55
2019-04-29T15:56:48.558Z,23.22
2019-04-29T15:59:17.195Z,22.30
2019-04-29T16:01:45.628Z,29.25
2019-04-29T16:04:15.604Z,20.75
2019-04-29T16:06:43.672Z,18.30
2019-04-29T16:09:13.635Z,14.33
2019-04-29T16:11:45.263Z,18.23
2019-04-29T16:14:15.222Z,16.17
2019-04-29T16:16:43.564Z,13.83
2019-04-29T16:19:11.920Z,13.68
2019-04-29T16:21:41.736Z,24.27
2019-04-29T16:24:25.711Z,16.97
2019-04-29T16:26:41.114Z,17.70
2019-04-29T16:29:13.203Z,18.20
2019-04-29T16:31:39.453Z,21.75
2019-04-29T16:34:07.932Z,15.15
2019-04-29T16:36:36.267Z,17.55
2019-04-29T16:39:05.897Z,20.43
2019-04-29T16:41:35.615Z,16.23
2019-04-29T16:44:04.953Z,14.83
2019-04-29T16:46:37.642Z,15.70
2019-04-29T16:49:04.079Z,17.45
2019-04-29T16:51:32.612Z,18.73
2019-04-29T16:54:00.931Z,15.63
2019-04-29T16:56:29.274Z,17.35
2019-04-29T16:58:57.786Z,20.77
2019-04-29T17:01:26.216Z,18.62
2019-04-29T17:03:54.514Z,18.17
2019-04-29T17:06:22.837Z,17.52
2019-04-29T17:09:03.045Z,17.52
2019-04-29T17:11:22.700Z,21.37
2019-04-29T17:13:51.218Z,21.20
2019-04-29T17:16:20.666Z,22.20
2019-04-29T17:18:48.974Z,18.92
2019-04-29T17:21:17.358Z,27.95
2019-04-29T17:23:45.783Z,29.82
2019-04-29T17:26:15.330Z,24.82
2019-04-29T17:28:45.703Z,19.62
2019-04-29T17:31:16.863Z,25.62
2019-04-29T17:33:50.531Z,20.17
2019-04-29T17:36:23.654Z,26.27
2019-04-29T17:38:49.264Z,29.40
2019-04-29T17:41:17.878Z,22.93
2019-04-29T17:43:47.856Z,22.20
2019-04-29T17:46:17.867Z,23.35
2019-04-29T17:48:48.579Z,20.32
2019-04-29T17:51:18.085Z,20.88
2019-04-29T17:53:48.196Z,20.48
2019-04-29T17:56:18.254Z,18.95
2019-04-29T17:58:51.652Z,21.45
2019-04-29T18:01:19.870Z,19.70
2019-04-29T18:03:49.806Z,21.05
2019-04-29T18:06:24.332Z,26.20
2019-04-29T18:08:49.627Z,23.47
2019-04-29T18:11:18.261Z,27.52
2019-04-29T18:13:46.807Z,19.20
2019-04-29T18:16:19.111Z,21.57
2019-04-29T18:18:53.460Z,42.15
2019-04-29T18:21:19.345Z,25.50
2019-04-29T18:23:51.559Z,23.57
2019-04-29T18:26:20.923Z,51.45
2019-04-29T18:28:49.502Z,51.30
2019-04-29T18:31:17.973Z,30.80
2019-04-29T18:33:46.269Z,35.15
2019-04-29T18:36:23.724Z,52.30
2019-04-29T18:38:47.540Z,65.35
2019-04-29T18:41:24.268Z,90.80
2019-04-29T18:43:45.217Z,54.93
2019-04-29T18:46:14.848Z,57.97
2019-04-29T18:48:45.579Z,58.97
2019-04-29T18:51:15.297Z,53.77
2019-04-29T18:53:43.739Z,45.60
2019-04-29T18:56:12.052Z,45.10
2019-04-29T18:58:42.116Z,50.37
2019-04-29T19:01:11.666Z,56.53
2019-04-29T19:03:41.783Z,42.57
2019-04-29T19:06:11.311Z,37.73
2019-04-29T19:08:40.283Z,38.77
2019-04-29T19:11:08.786Z,37.23
2019-04-29T19:13:37.074Z,29.43
2019-04-29T19:16:10.175Z,34.60
2019-04-29T19:18:35.624Z,27.63
2019-04-29T19:21:04.028Z,29.33
2019-04-29T19:23:32.548Z,27.27
2019-04-29T19:26:00.910Z,31.87
2019-04-29T19:28:31.113Z,23.97
2019-04-29T19:31:03.018Z,21.13
2019-04-29T19:33:30.707Z,20.63
2019-04-29T19:35:59.276Z,25.50
2019-04-29T19:38:27.624Z,22.83
2019-04-29T19:40:55.866Z,22.00
2019-04-29T19:43:26.875Z,19.60
2019-04-29T19:45:57.408Z,11.67
2019-04-29T19:48:26.993Z,18.57
2019-04-29T19:51:13.942Z,17.30
2019-04-29T19:53:25.358Z,16.27
2019-04-29T19:56:03.552Z,16.70
2019-04-29T19:58:29.796Z,42.90
2019-04-29T20:00:57.269Z,34.10
2019-04-29T20:03:35.171Z,28.53
2019-04-29T20:06:07.712Z,37.77
2019-04-29T20:08:46.578Z,31.50
2019-04-29T20:10:58.204Z,31.03
2019-04-29T20:13:31.702Z,29.23
2019-04-29T20:16:09.547Z,26.43
2019-04-29T20:18:35.718Z,33.23
2019-04-29T20:21:08.690Z,26.03
2019-04-29T20:23:36.211Z,30.73
2019-04-29T20:26:13.952Z,27.13
2019-04-29T20:28:31.650Z,24.30
2019-04-29T20:31:15.379Z,21.10
2019-04-29T20:33:30.322Z,39.23
2019-04-29T20:36:02.189Z,34.57
2019-04-29T20:38:29.839Z,32.03
2019-04-29T20:40:59.459Z,31.53
2019-04-29T20:43:29.920Z,29.73
2019-04-29T20:46:02.261Z,31.03
2019-04-29T20:48:31.487Z,38.33
2019-04-29T20:51:10.626Z,19.40
2019-04-29T20:53:37.852Z,22.27
2019-04-29T20:56:11.977Z,27.00
2019-04-29T20:58:36.049Z,38.73
2019-04-29T21:01:10.915Z,26.90
2019-04-29T21:03:45.365Z,27.50
2019-04-29T21:06:11.659Z,35.57
2019-04-29T21:08:39.955Z,25.73
2019-04-29T21:11:14.280Z,47.27
2019-04-29T21:13:41.578Z,39.77
2019-04-29T21:16:11.500Z,44.73
2019-04-29T21:18:39.708Z,30.13
2019-04-29T21:21:08.039Z,33.40
2019-04-29T21:23:36.713Z,36.70
2019-04-29T21:26:08.698Z,32.73
2019-04-29T21:28:41.181Z,42.53
2019-04-29T21:31:07.084Z,15.33
2019-04-29T21:33:35.672Z,43.97
2019-04-29T21:36:05.923Z,29.90
2019-04-29T21:38:36.090Z,29.43
2019-04-29T21:41:06.248Z,34.43
2019-04-29T21:43:36.087Z,28.20
2019-04-29T21:46:05.724Z,20.10
2019-04-29T21:48:36.837Z,20.57
2019-04-29T21:51:06.889Z,35.20
2019-04-29T21:53:38.823Z,35.70
2019-04-29T21:56:09.170Z,31.67
2019-04-29T21:58:34.624Z,26.80
2019-04-29T22:01:04.979Z,33.30
2019-04-29T22:03:36.574Z,28.20
2019-04-29T22:06:05.082Z,37.03
2019-04-29T22:08:35.501Z,38.27
2019-04-29T22:11:05.245Z,31.27
2019-04-29T22:13:35.528Z,28.70
2019-04-29T22:16:05.154Z,34.47
2019-04-29T22:18:35.567Z,37.07
2019-04-29T22:21:06.584Z,41.13
2019-04-29T22:23:35.242Z,29.67
2019-04-29T22:26:05.177Z,44.17
2019-04-29T22:28:35.087Z,45.80
2019-04-29T22:31:05.374Z,30.77
2019-04-29T22:33:34.914Z,40.03
2019-04-29T22:36:05.301Z,33.33
2019-04-29T22:38:35.867Z,35.17
2019-04-29T22:41:06.692Z,31.70
2019-04-29T22:43:40.266Z,37.53
2019-04-29T22:46:09.349Z,41.33
2019-04-29T22:48:40.632Z,31.50
2019-04-29T22:51:10.177Z,35.73
2019-04-29T22:53:40.123Z,22.53
2019-04-29T22:56:09.002Z,30.20
2019-04-29T22:58:39.501Z,30.57
2019-04-29T23:01:08.565Z,25.40
2019-04-29T23:03:37.914Z,27.70
2019-04-29T23:06:08.527Z,37.07
2019-04-29T23:08:38.152Z,70.13
2019-04-29T23:11:07.802Z,57.77
2019-04-29T23:13:38.111Z,56.10
2019-04-29T23:16:06.311Z,53.10
2019-04-29T23:18:41.964Z,59.27
2019-04-29T23:21:06.144Z,56.37
2019-04-29T23:23:38.170Z,33.27
2019-04-29T23:26:06.164Z,48.20
2019-04-29T23:28:35.576Z,43.00
2019-04-29T23:31:04.382Z,40.57
2019-04-29T23:33:32.704Z,67.57
2019-04-29T23:36:01.080Z,47.23
2019-04-29T23:38:29.601Z,62.17
2019-04-29T23:40:58.127Z,48.10
2019-04-29T23:43:28.452Z,53.60
2019-04-29T23:46:00.390Z,43.10
2019-04-29T23:48:38.137Z,37.20
2019-04-29T23:50:58.127Z,45.47
2019-04-29T23:53:26.639Z,38.27
2019-04-29T23:55:55.598Z,42.10
2019-04-29T23:58:25.623Z,59.40
